Boquim, Brazil
Current Conditions -  °F | °C
As of 11:00 AM on Saturday 20 Dec 2014 (Local Time) from SBAR Reporting Station
Clear Clear  
Wind Chill: 84°   Ceiling: Unl
Heat Index: 90°   Visibility: 6mi
Dew Point: 72°   Wind: 14mph
Humidity: 66%   Direction: 90°E
Pressure: 29.97"   Gusts: NA
Location:  11.15°S, 37.62°W
Report Text: SBAR 201400Z 09012KT CAVOK 29/22 Q1015
Loading
Personal Weather Stations






























Interactive Weather Map New forecast layout! Learn more

10-Day Weather Forecast

Advertisements
Track Severe Weather on mobile